createdAt,value
2023-04-07T00:02:13.453Z,98753.88
2023-04-07T00:04:41.595Z,98743.78
2023-04-07T00:07:09.587Z,98722.00
2023-04-07T00:09:37.561Z,98748.63
2023-04-07T00:12:05.290Z,98752.88
2023-04-07T00:14:32.795Z,98763.25
2023-04-07T00:17:00.264Z,98734.88
2023-04-07T00:19:27.788Z,98753.56
2023-04-07T00:21:55.220Z,98755.63
2023-04-07T00:24:33.460Z,98751.59
2023-04-07T00:27:01.986Z,98755.16
2023-04-07T00:29:29.501Z,98759.41
2023-04-07T00:31:57.072Z,98759.91
2023-04-07T00:34:24.695Z,98764.38
2023-04-07T00:36:55.163Z,98766.63
2023-04-07T00:39:23.225Z,98775.44
2023-04-07T00:41:51.610Z,98766.91
2023-04-07T00:44:19.180Z,98776.22
2023-04-07T00:46:48.789Z,98791.78
2023-04-07T00:49:20.145Z,98796.72
2023-04-07T00:51:47.774Z,98785.75
2023-04-07T00:54:15.773Z,98804.63
2023-04-07T00:56:43.854Z,98793.06
2023-04-07T00:59:11.605Z,98799.84
2023-04-07T01:01:46.826Z,98802.53
2023-04-07T01:04:28.824Z,98809.44
2023-04-07T01:07:04.542Z,98805.38
2023-04-07T01:10:01.024Z,98818.63
2023-04-07T01:12:38.012Z,98819.81
2023-04-07T01:15:09.942Z,98829.94
2023-04-07T01:17:46.642Z,98834.22
2023-04-07T01:20:18.185Z,98823.78
2023-04-07T01:22:57.806Z,98838.91
2023-04-07T01:25:54.137Z,98837.00
2023-04-07T01:28:40.065Z,98846.31
2023-04-07T01:31:11.076Z,98860.38
2023-04-07T01:33:40.615Z,98862.75
2023-04-07T01:36:09.964Z,98856.19
2023-04-07T01:38:39.399Z,98867.38
2023-04-07T01:41:08.913Z,98880.81
2023-04-07T01:43:38.169Z,98873.44
2023-04-07T01:46:05.842Z,98877.63
2023-04-07T01:48:36.448Z,98888.50
2023-04-07T01:51:06.490Z,98887.97
2023-04-07T01:53:38.204Z,98896.81
2023-04-07T01:56:06.096Z,98900.72
2023-04-07T01:58:35.692Z,98895.94
2023-04-07T02:01:05.325Z,98907.50
2023-04-07T02:07:49.008Z,98876.00
2023-04-07T02:10:20.716Z,98924.44
2023-04-07T02:12:49.507Z,98930.16
2023-04-07T02:15:20.080Z,98931.56
2023-04-07T02:17:52.326Z,98927.25
2023-04-07T02:20:21.288Z,98935.13
2023-04-07T02:22:50.479Z,98931.59
2023-04-07T02:25:30.176Z,98961.97
2023-04-07T02:27:59.324Z,98949.69
2023-04-07T02:30:27.328Z,98955.94
2023-04-07T02:32:58.913Z,98961.25
2023-04-07T02:35:26.568Z,98959.41
2023-04-07T02:37:54.320Z,98965.81
2023-04-07T02:40:21.858Z,98970.72
2023-04-07T02:42:49.333Z,98971.03
2023-04-07T02:45:16.886Z,98970.47
2023-04-07T02:47:44.374Z,98978.13
2023-04-07T02:50:12.040Z,98985.97
2023-04-07T02:52:39.619Z,98981.94
2023-04-07T02:55:12.493Z,98997.81
2023-04-07T02:57:40.121Z,98998.00
2023-04-07T03:00:15.201Z,98999.19
2023-04-07T03:03:03.112Z,98994.81
2023-04-07T03:05:34.654Z,98995.34
2023-04-07T03:08:03.325Z,99007.47
2023-04-07T03:10:30.804Z,99005.19
2023-04-07T03:12:58.493Z,99013.00
2023-04-07T03:15:26.365Z,99020.47
2023-04-07T03:17:53.892Z,99035.31
2023-04-07T03:20:21.572Z,99029.47
2023-04-07T03:22:49.091Z,99025.44
2023-04-07T03:25:22.771Z,99036.22
2023-04-07T03:27:51.886Z,99043.47
2023-04-07T03:30:20.221Z,99041.13
2023-04-07T03:32:47.805Z,99046.47
2023-04-07T03:35:15.576Z,99056.06
2023-04-07T03:37:44.969Z,99054.31
2023-04-07T03:40:16.651Z,99054.59
2023-04-07T03:42:47.201Z,99060.16
2023-04-07T03:45:17.726Z,99051.25
2023-04-07T03:47:50.277Z,99058.66
2023-04-07T03:50:18.470Z,99052.63
2023-04-07T03:53:00.917Z,99062.59
2023-04-07T03:55:31.467Z,99074.06
2023-04-07T03:58:05.532Z,99061.25
2023-04-07T04:00:35.941Z,99078.84
2023-04-07T04:03:11.985Z,99073.81
2023-04-07T04:06:00.622Z,99067.91
2023-04-07T04:08:31.435Z,99080.41
2023-04-07T04:10:59.039Z,99084.16
2023-04-07T04:13:32.553Z,99083.38
2023-04-07T04:16:05.272Z,99092.31
2023-04-07T04:18:33.607Z,99095.72
2023-04-07T04:21:01.765Z,99096.41
2023-04-07T04:23:29.856Z,99084.34
2023-04-07T04:26:00.476Z,99090.34
2023-04-07T04:28:29.087Z,99107.63
2023-04-07T04:30:56.851Z,99107.69
2023-04-07T04:33:24.858Z,99100.88
2023-04-07T04:35:55.684Z,99101.81
2023-04-07T04:38:24.780Z,99096.25
2023-04-07T04:40:57.616Z,99107.16
2023-04-07T04:43:29.142Z,99116.84
2023-04-07T04:45:57.312Z,99105.38
2023-04-07T04:48:27.599Z,99109.84
2023-04-07T04:50:55.142Z,99114.63
2023-04-07T04:53:22.976Z,99122.41
2023-04-07T04:55:58.305Z,99131.84
2023-04-07T04:58:36.394Z,99125.53
2023-04-07T05:01:04.096Z,99112.28
2023-04-07T05:03:38.260Z,99132.22
2023-04-07T05:06:13.672Z,99131.66
2023-04-07T05:08:43.512Z,99129.34
2023-04-07T05:11:13.201Z,99133.16
2023-04-07T05:13:42.902Z,99142.59
2023-04-07T05:16:12.000Z,99141.28
2023-04-07T05:18:39.669Z,99142.75
2023-04-07T05:21:07.170Z,99155.41
2023-04-07T05:23:36.747Z,99148.22
2023-04-07T05:26:06.585Z,99147.69
2023-04-07T05:28:34.210Z,99130.41
2023-04-07T05:31:07.699Z,99143.06
2023-04-07T05:33:36.519Z,99154.72
2023-04-07T05:36:04.360Z,99153.44
2023-04-07T05:38:33.235Z,99159.19
2023-04-07T05:41:08.928Z,99149.28
2023-04-07T05:43:37.431Z,99137.91
2023-04-07T05:46:06.163Z,99144.66
2023-04-07T05:48:38.010Z,99156.22
2023-04-07T05:51:05.606Z,99168.91
2023-04-07T05:53:33.093Z,99164.47
2023-04-07T05:56:00.756Z,99165.72
2023-04-07T05:58:54.294Z,99166.38
2023-04-07T06:01:21.959Z,99168.69
2023-04-07T06:03:51.372Z,99163.75
2023-04-07T06:06:24.955Z,99171.34
2023-04-07T06:08:52.781Z,99166.81
2023-04-07T06:11:20.929Z,99176.88
2023-04-07T06:13:48.728Z,99184.34
2023-04-07T06:16:17.471Z,99170.59
2023-04-07T06:18:46.479Z,99177.00
2023-04-07T06:21:14.005Z,99175.00
2023-04-07T06:23:41.455Z,99169.19
2023-04-07T06:26:13.543Z,99186.47
2023-04-07T06:28:41.382Z,99181.38
2023-04-07T06:31:09.431Z,99188.28
2023-04-07T06:33:38.044Z,99181.31
2023-04-07T06:36:05.624Z,99179.22
2023-04-07T06:38:33.293Z,99182.88
2023-04-07T06:41:01.069Z,99187.53
2023-04-07T06:43:28.864Z,99183.09
2023-04-07T06:46:01.850Z,99188.19
2023-04-07T06:48:29.362Z,99187.22
2023-04-07T06:50:56.899Z,99191.16
2023-04-07T06:53:24.317Z,99177.22
2023-04-07T06:55:51.706Z,99176.44
2023-04-07T06:58:19.214Z,99175.00
2023-04-07T07:00:46.628Z,99179.25
2023-04-07T07:03:14.280Z,99174.03
2023-04-07T07:05:41.881Z,99181.38
2023-04-07T07:08:09.276Z,99174.63
2023-04-07T07:10:36.727Z,99164.41
2023-04-07T07:13:04.209Z,99170.69
2023-04-07T07:15:31.729Z,99183.69
2023-04-07T07:17:59.325Z,99175.97
2023-04-07T07:20:26.882Z,99182.31
2023-04-07T07:22:54.480Z,99175.81
2023-04-07T07:25:22.086Z,99172.69
2023-04-07T07:27:53.592Z,99178.06
2023-04-07T07:30:22.722Z,99178.84
2023-04-07T07:32:51.558Z,99172.91
2023-04-07T07:35:20.259Z,99184.63
2023-04-07T07:37:47.993Z,99185.69
2023-04-07T07:40:15.861Z,99185.59
2023-04-07T07:42:43.561Z,99177.16
2023-04-07T07:45:12.395Z,99184.06
2023-04-07T07:47:40.890Z,99179.28
2023-04-07T07:50:08.634Z,99185.28
2023-04-07T07:52:36.144Z,99178.28
2023-04-07T07:55:03.974Z,99187.59
2023-04-07T07:57:32.228Z,99187.03
2023-04-07T07:59:59.736Z,99183.78
2023-04-07T08:02:31.681Z,99184.34
2023-04-07T08:04:59.293Z,99194.31
2023-04-07T08:07:27.721Z,99193.03
2023-04-07T08:09:55.162Z,99195.69
2023-04-07T08:12:22.881Z,99195.31
2023-04-07T08:14:50.913Z,99198.66
2023-04-07T08:17:18.520Z,99194.19
2023-04-07T08:19:46.870Z,99200.22
2023-04-07T08:22:14.399Z,99202.28
2023-04-07T08:24:42.299Z,99204.44
2023-04-07T08:27:09.780Z,99196.09
2023-04-07T08:29:37.227Z,99195.22
2023-04-07T08:32:04.808Z,99191.63
2023-04-07T08:34:32.631Z,99194.56
2023-04-07T08:37:00.156Z,99199.03
2023-04-07T08:39:28.527Z,99200.28
2023-04-07T08:41:57.406Z,99197.00
2023-04-07T08:44:27.567Z,99207.00
2023-04-07T08:46:57.132Z,99210.25
2023-04-07T08:49:27.936Z,99205.22
2023-04-07T08:51:57.267Z,99199.88
2023-04-07T08:54:24.833Z,99188.94
2023-04-07T08:56:53.087Z,99193.34
2023-04-07T08:59:26.936Z,99197.47
2023-04-07T09:01:55.740Z,99198.28
2023-04-07T09:04:24.972Z,99196.16
2023-04-07T09:06:52.474Z,99195.31
2023-04-07T09:09:19.920Z,99187.03
2023-04-07T09:11:49.106Z,99200.47
2023-04-07T09:14:16.793Z,99191.22
2023-04-07T09:16:44.533Z,99191.56
2023-04-07T09:19:12.013Z,99197.84
2023-04-07T09:21:50.650Z,99201.88
2023-04-07T09:24:26.474Z,99200.66
2023-04-07T09:27:20.441Z,99197.72
2023-04-07T09:29:48.512Z,99190.94
2023-04-07T09:32:41.848Z,99198.34
2023-04-07T09:35:12.369Z,99191.31
2023-04-07T09:37:39.975Z,99191.53
2023-04-07T09:40:08.192Z,99190.72
2023-04-07T09:42:38.211Z,99197.72
2023-04-07T09:45:06.129Z,99188.09
2023-04-07T09:47:33.645Z,99195.75
2023-04-07T09:50:07.135Z,99189.56
2023-04-07T09:52:54.200Z,99189.19
2023-04-07T09:55:23.596Z,99186.69
2023-04-07T09:57:51.996Z,99193.06
2023-04-07T10:00:19.683Z,99200.16
2023-04-07T10:02:48.345Z,99204.59
2023-04-07T10:05:15.997Z,99194.00
2023-04-07T10:07:43.978Z,99201.56
2023-04-07T10:10:11.746Z,99196.44
2023-04-07T10:12:41.729Z,99189.31
2023-04-07T10:15:12.916Z,99194.38
2023-04-07T10:17:41.864Z,99187.91
2023-04-07T10:20:11.456Z,99181.44
2023-04-07T10:22:42.192Z,99201.50
2023-04-07T10:25:11.916Z,99187.91
2023-04-07T10:27:54.211Z,99196.97
2023-04-07T10:30:27.369Z,99195.34
2023-04-07T10:32:55.726Z,99195.66
2023-04-07T10:35:24.019Z,99196.88
2023-04-07T10:38:16.940Z,99201.19
2023-04-07T10:40:45.122Z,99188.13
2023-04-07T10:43:12.772Z,99188.91
2023-04-07T10:45:49.355Z,99195.47
2023-04-07T10:48:18.639Z,99181.97
2023-04-07T10:50:47.188Z,99191.47
2023-04-07T10:53:17.854Z,99205.69
2023-04-07T10:55:55.159Z,99201.03
2023-04-07T10:58:33.039Z,99195.91
2023-04-07T11:01:00.883Z,99200.28
2023-04-07T11:03:30.241Z,99202.00
2023-04-07T11:06:11.687Z,99199.50
2023-04-07T11:08:46.226Z,99207.00
2023-04-07T11:11:17.819Z,99202.03
2023-04-07T11:13:47.768Z,99195.25
2023-04-07T11:16:17.705Z,99199.34
2023-04-07T11:18:48.413Z,99198.38
2023-04-07T11:21:20.177Z,99199.34
2023-04-07T11:23:48.611Z,99201.16
2023-04-07T11:26:16.750Z,99205.03
2023-04-07T11:28:50.184Z,99200.66
2023-04-07T11:31:29.056Z,99203.72
2023-04-07T11:33:59.503Z,99203.50
2023-04-07T11:36:37.165Z,99204.81
2023-04-07T11:39:04.796Z,99204.16
2023-04-07T11:41:33.875Z,99202.09
2023-04-07T11:44:12.063Z,99197.59
2023-04-07T11:46:59.226Z,99204.13
2023-04-07T11:49:29.105Z,99196.47
2023-04-07T11:52:05.983Z,99199.75
2023-04-07T11:54:50.839Z,99187.28
2023-04-07T11:57:26.731Z,99201.03
2023-04-07T12:00:08.310Z,99192.72
2023-04-07T12:02:36.313Z,99193.16
2023-04-07T12:05:07.510Z,99198.59
2023-04-07T12:07:35.021Z,99191.44
2023-04-07T12:10:27.630Z,99196.16
2023-04-07T12:12:55.566Z,99187.06
2023-04-07T12:15:24.487Z,99178.63
2023-04-07T12:17:52.096Z,99186.34
2023-04-07T12:20:19.659Z,99190.53
2023-04-07T12:22:47.670Z,99193.06
2023-04-07T12:25:15.266Z,99190.53
2023-04-07T12:27:44.052Z,99189.75
2023-04-07T12:30:16.452Z,99190.03
2023-04-07T12:32:44.038Z,99190.53
2023-04-07T12:35:11.518Z,99191.44
2023-04-07T12:37:39.048Z,99187.59
2023-04-07T12:40:07.429Z,99195.19
2023-04-07T12:42:35.006Z,99193.28
2023-04-07T12:45:03.390Z,99188.88
2023-04-07T12:47:32.396Z,99185.91
2023-04-07T12:50:00.757Z,99179.94
2023-04-07T12:52:28.556Z,99186.56
2023-04-07T12:54:57.404Z,99186.75
2023-04-07T12:57:25.425Z,99182.38
2023-04-07T12:59:53.852Z,99182.00
2023-04-07T13:02:21.989Z,99179.00
2023-04-07T13:04:49.601Z,99175.28
2023-04-07T13:07:17.207Z,99175.28
2023-04-07T13:09:44.714Z,99181.28
2023-04-07T13:12:12.797Z,99166.31
2023-04-07T13:14:52.926Z,99185.66
2023-04-07T13:17:25.166Z,99188.88
2023-04-07T13:19:52.947Z,99184.78
2023-04-07T13:22:22.274Z,99182.13
2023-04-07T13:24:51.927Z,99181.03
2023-04-07T13:27:19.545Z,99184.13
2023-04-07T13:29:47.157Z,99179.16
2023-04-07T13:32:16.269Z,99176.47
2023-04-07T13:34:44.464Z,99148.16
2023-04-07T13:37:12.093Z,99180.00
2023-04-07T13:39:39.649Z,99175.66
2023-04-07T13:42:07.369Z,99180.53
2023-04-07T13:44:37.313Z,99167.72
2023-04-07T13:47:57.737Z,99167.59
2023-04-07T13:50:41.306Z,99167.66
2023-04-07T13:53:09.010Z,99153.44
2023-04-07T13:55:37.065Z,99172.31
2023-04-07T13:58:04.577Z,99185.63
2023-04-07T14:00:32.356Z,99187.34
2023-04-07T14:03:00.112Z,99193.78
2023-04-07T14:05:30.948Z,99175.13
2023-04-07T14:08:00.590Z,99189.72
2023-04-07T14:10:28.261Z,99181.28
2023-04-07T14:12:58.343Z,99186.53
2023-04-07T14:15:26.625Z,99178.88
2023-04-07T14:17:54.238Z,99179.00
2023-04-07T14:20:21.829Z,99164.41
2023-04-07T14:22:49.440Z,99169.38
2023-04-07T14:25:17.400Z,99168.88
2023-04-07T14:27:45.014Z,99179.91
2023-04-07T14:30:14.706Z,99185.03
2023-04-07T14:32:42.272Z,99172.94
2023-04-07T14:35:09.994Z,99178.38
2023-04-07T14:37:37.478Z,99179.47
2023-04-07T14:40:05.858Z,99183.72
2023-04-07T14:42:33.784Z,99179.06
2023-04-07T14:45:02.104Z,99177.56
2023-04-07T14:47:30.867Z,99184.00
2023-04-07T14:49:58.396Z,99181.94
2023-04-07T14:52:26.284Z,99183.00
2023-04-07T14:54:53.899Z,99180.44
2023-04-07T14:57:22.477Z,99189.84
2023-04-07T14:59:50.078Z,99190.03
2023-04-07T15:02:17.666Z,99193.00
2023-04-07T15:04:45.359Z,99200.03
2023-04-07T15:07:12.979Z,99200.34
2023-04-07T15:09:40.742Z,99205.41
2023-04-07T15:12:08.290Z,99201.00
2023-04-07T15:14:35.978Z,99213.00
2023-04-07T15:17:03.609Z,99207.72
2023-04-07T15:19:31.175Z,99209.91
2023-04-07T15:21:58.665Z,99202.91
2023-04-07T15:24:26.237Z,99210.41
2023-04-07T15:26:54.007Z,99212.09
2023-04-07T15:29:21.638Z,99210.09
2023-04-07T15:31:49.272Z,99215.44
2023-04-07T15:34:16.764Z,99212.53
2023-04-07T15:36:44.199Z,99215.00
2023-04-07T15:39:11.780Z,99220.16
2023-04-07T15:41:39.319Z,99207.06
2023-04-07T15:44:06.986Z,99203.66
2023-04-07T15:46:34.556Z,99198.38
2023-04-07T15:49:02.168Z,99202.66
2023-04-07T15:51:30.160Z,99211.34
2023-04-07T15:53:57.712Z,99206.06
2023-04-07T15:56:25.376Z,99217.56
2023-04-07T15:58:52.941Z,99205.03
2023-04-07T16:01:20.801Z,99212.28
2023-04-07T16:03:48.789Z,99210.69
2023-04-07T16:06:16.891Z,99209.53
2023-04-07T16:08:45.087Z,99206.66
2023-04-07T16:11:12.630Z,99215.66
2023-04-07T16:13:40.201Z,99209.81
2023-04-07T16:16:08.432Z,99213.06
2023-04-07T16:18:36.038Z,99212.84
2023-04-07T16:21:07.918Z,99212.47
2023-04-07T16:23:35.625Z,99206.75
2023-04-07T16:26:03.471Z,99215.00
2023-04-07T16:28:33.243Z,99218.47
2023-04-07T16:31:02.870Z,99215.31
2023-04-07T16:36:29.295Z,99215.31
2023-04-07T16:38:57.929Z,99209.47
2023-04-07T16:41:25.456Z,99225.31
2023-04-07T16:43:53.038Z,99220.84
2023-04-07T16:46:20.697Z,99216.28
2023-04-07T16:48:48.579Z,99228.00
2023-04-07T16:51:19.761Z,99231.97
2023-04-07T16:53:47.927Z,99233.06
2023-04-07T16:56:20.229Z,99228.97
2023-04-07T16:58:51.585Z,99229.50
2023-04-07T17:01:19.660Z,99227.88
2023-04-07T17:03:51.998Z,99226.81
2023-04-07T17:06:19.780Z,99227.38
2023-04-07T17:08:49.171Z,99220.44
2023-04-07T17:11:16.863Z,99237.28
2023-04-07T17:13:44.400Z,99231.75
2023-04-07T17:16:15.089Z,99229.59
2023-04-07T17:18:42.910Z,99223.00
2023-04-07T17:21:10.446Z,99228.41
2023-04-07T17:23:38.701Z,99226.06
2023-04-07T17:26:06.344Z,99229.75
2023-04-07T17:28:33.778Z,99232.72
2023-04-07T17:31:04.343Z,99233.00
2023-04-07T17:33:32.165Z,99224.47
2023-04-07T17:36:03.368Z,99231.34
2023-04-07T17:38:31.328Z,99221.56
2023-04-07T17:41:00.041Z,99233.31
2023-04-07T17:43:28.892Z,99223.03
2023-04-07T17:45:56.965Z,99224.41
2023-04-07T17:48:24.741Z,99216.31
2023-04-07T17:50:52.274Z,99218.69
2023-04-07T17:53:20.164Z,99217.38
2023-04-07T17:55:48.121Z,99208.44
2023-04-07T17:58:15.929Z,99208.47
2023-04-07T18:00:43.394Z,99203.75
2023-04-07T18:03:12.041Z,99213.34
2023-04-07T18:05:46.973Z,99217.66
2023-04-07T18:08:15.163Z,99200.25
2023-04-07T18:10:42.929Z,99217.56
2023-04-07T18:13:10.566Z,99207.69
2023-04-07T18:15:38.190Z,99214.94
2023-04-07T18:18:06.114Z,99206.16
2023-04-07T18:20:33.942Z,99197.97
2023-04-07T18:23:04.361Z,99204.06
2023-04-07T18:25:31.969Z,99209.16
2023-04-07T18:27:59.418Z,99201.16
2023-04-07T18:30:27.491Z,99196.16
2023-04-07T18:32:55.023Z,99196.38
2023-04-07T18:35:22.645Z,99198.81
2023-04-07T18:37:53.947Z,99201.50
2023-04-07T18:40:21.472Z,99203.69
2023-04-07T18:42:48.992Z,99203.09
2023-04-07T18:45:16.717Z,99195.38
2023-04-07T18:47:44.509Z,99197.53
2023-04-07T18:50:12.308Z,99194.09
2023-04-07T18:52:39.851Z,99190.13
2023-04-07T18:55:09.083Z,99198.09
2023-04-07T18:57:36.657Z,99195.41
2023-04-07T19:00:04.455Z,99191.38
2023-04-07T19:02:32.098Z,99190.06
2023-04-07T19:04:59.748Z,99181.25
2023-04-07T19:07:27.232Z,99184.72
2023-04-07T19:09:54.853Z,99188.16
2023-04-07T19:12:22.575Z,99194.25
2023-04-07T19:14:50.077Z,99186.75
2023-04-07T19:17:17.847Z,99191.22
2023-04-07T19:19:45.293Z,99180.00
2023-04-07T19:22:12.877Z,99182.34
2023-04-07T19:24:41.030Z,99177.00
2023-04-07T19:27:09.230Z,99182.53
2023-04-07T19:29:37.197Z,99173.50
2023-04-07T19:32:04.855Z,99176.75
2023-04-07T19:34:32.825Z,99175.22
2023-04-07T19:37:00.284Z,99173.19
2023-04-07T19:39:27.781Z,99171.63
2023-04-07T19:41:56.386Z,99175.34
2023-04-07T19:44:23.968Z,99176.66
2023-04-07T19:46:55.160Z,99177.09
2023-04-07T19:49:22.907Z,99180.91
2023-04-07T19:51:54.374Z,99178.44
2023-04-07T19:54:22.509Z,99172.84
2023-04-07T19:56:50.093Z,99172.56
2023-04-07T19:59:17.503Z,99178.94
2023-04-07T20:01:45.082Z,99169.72
2023-04-07T20:04:12.777Z,99173.53
2023-04-07T20:06:40.838Z,99177.81
2023-04-07T20:09:08.516Z,99178.09
2023-04-07T20:11:35.957Z,99182.09
2023-04-07T20:14:03.451Z,99182.84
2023-04-07T20:16:34.034Z,99186.81
2023-04-07T20:19:01.732Z,99177.53
2023-04-07T20:21:29.438Z,99179.63
2023-04-07T20:23:56.960Z,99172.47
2023-04-07T20:26:24.819Z,99167.41
2023-04-07T20:28:52.502Z,99174.56
2023-04-07T20:31:20.058Z,99175.69
2023-04-07T20:33:47.607Z,99174.91
2023-04-07T20:36:15.224Z,99171.19
2023-04-07T20:38:44.194Z,99168.53
2023-04-07T20:41:14.526Z,99173.53
2023-04-07T20:43:42.066Z,99157.59
2023-04-07T20:46:09.868Z,99166.94
2023-04-07T20:48:38.464Z,99172.81
2023-04-07T20:51:06.009Z,99163.78
2023-04-07T20:53:33.579Z,99164.84
2023-04-07T20:56:03.143Z,99166.44
2023-04-07T20:58:30.867Z,99164.56
2023-04-07T21:01:00.179Z,99165.88
2023-04-07T21:03:28.444Z,99164.56
2023-04-07T21:05:57.321Z,99164.28
2023-04-07T21:08:24.795Z,99154.97
2023-04-07T21:10:53.553Z,99162.16
2023-04-07T21:13:22.726Z,99165.63
2023-04-07T21:15:50.339Z,99166.41
2023-04-07T21:18:19.178Z,99164.81
2023-04-07T21:20:47.523Z,99166.94
2023-04-07T21:23:15.179Z,99163.72
2023-04-07T21:25:42.644Z,99153.34
2023-04-07T21:28:10.241Z,99153.06
2023-04-07T21:30:42.195Z,99130.19
2023-04-07T21:33:10.124Z,99156.03
2023-04-07T21:35:38.124Z,99152.28
2023-04-07T21:38:05.990Z,99149.06
2023-04-07T21:40:33.443Z,99151.22
2023-04-07T21:43:01.034Z,99146.97
2023-04-07T21:45:29.856Z,99143.22
2023-04-07T21:47:57.605Z,99138.41
2023-04-07T21:50:25.788Z,99140.00
2023-04-07T21:52:53.891Z,99134.94
2023-04-07T21:55:21.734Z,99140.78
2023-04-07T21:57:50.403Z,99126.69
2023-04-07T22:00:18.119Z,99140.28
2023-04-07T22:02:45.865Z,99138.69
2023-04-07T22:05:14.002Z,99128.31
2023-04-07T22:07:41.475Z,99117.66
2023-04-07T22:10:09.537Z,99131.25
2023-04-07T22:12:37.125Z,99122.22
2023-04-07T22:15:05.309Z,99119.84
2023-04-07T22:17:32.908Z,99127.03
2023-04-07T22:20:00.593Z,99115.34
2023-04-07T22:22:28.115Z,99112.66
2023-04-07T22:24:55.752Z,99115.84
2023-04-07T22:27:23.410Z,99113.25
2023-04-07T22:29:50.840Z,99115.63
2023-04-07T22:32:18.388Z,99117.81
2023-04-07T22:34:46.866Z,99115.16
2023-04-07T22:37:14.394Z,99108.50
2023-04-07T22:39:42.079Z,99108.50
2023-04-07T22:42:09.524Z,99117.03
2023-04-07T22:44:37.082Z,99117.81
2023-04-07T22:47:04.807Z,99112.78
2023-04-07T22:49:32.587Z,99106.38
2023-04-07T22:52:00.240Z,99110.09
2023-04-07T22:54:27.727Z,99108.00
2023-04-07T22:56:55.192Z,99107.72
2023-04-07T22:59:22.675Z,99105.84
2023-04-07T23:01:50.251Z,99098.91
2023-04-07T23:04:17.756Z,99098.41
2023-04-07T23:06:45.294Z,99100.28
2023-04-07T23:09:12.839Z,99101.59
2023-04-07T23:11:40.354Z,99091.75
2023-04-07T23:14:08.276Z,99099.47
2023-04-07T23:16:36.228Z,99094.97
2023-04-07T23:19:03.831Z,99093.34
2023-04-07T23:21:32.457Z,99096.31
2023-04-07T23:24:00.533Z,99081.69
2023-04-07T23:26:28.231Z,99090.44
2023-04-07T23:28:55.662Z,99099.50
2023-04-07T23:31:23.341Z,99092.59
2023-04-07T23:33:50.946Z,99091.78
2023-04-07T23:36:18.483Z,99082.22
2023-04-07T23:38:46.120Z,99093.94
2023-04-07T23:41:13.630Z,99080.34
2023-04-07T23:43:41.394Z,99094.44
2023-04-07T23:46:08.899Z,99091.78
2023-04-07T23:48:36.669Z,99083.00
2023-04-07T23:51:04.279Z,99085.16
2023-04-07T23:53:31.754Z,99079.84
2023-04-07T23:55:59.373Z,99083.28
2023-04-07T23:58:26.836Z,99075.00
